Time;durP1;ratioP1;P1;durP2;ratioP2;P2;SDS_P1;SDS_P2;PMS_P1;PMS_P2;Temp;Humidity;BMP_temperature;BMP_pressure;BME280_temperature;BME280_humidity;BME280_pressure;Samples;Min_cycle;Max_cycle;Signal;HPM_P1;HPM_P2
2023/11/15 00:01:07;;;;;;;10.70;5.40;;;;;;;7.54;85.30;98266.19;81922;1298;3011309;-68
2023/11/15 00:03:35;;;;;;;10.60;4.90;;;;;;;7.57;84.13;98259.73;80694;1300;3026851;-69
2023/11/15 00:06:03;;;;;;;11.40;5.60;;;;;;;7.27;85.16;98255.44;81962;1296;3018758;-69
2023/11/15 00:08:31;;;;;;;12.40;6.20;;;;;;;7.27;84.81;98262.95;82001;1296;3011799;-68
2023/11/15 00:10:59;;;;;;;13.80;5.80;;;;;;;7.00;85.63;98246.92;80717;1296;3049299;-69
2023/11/15 00:13:26;;;;;;;12.60;5.70;;;;;;;6.75;86.96;98254.97;81975;1296;3012869;-68
2023/11/15 00:15:53;;;;;;;10.20;5.00;;;;;;;7.06;87.11;98254.19;81950;1298;3011098;-69
2023/11/15 00:18:21;;;;;;;9.20;4.90;;;;;;;7.44;85.18;98256.27;80720;1300;3026492;-68
2023/11/15 00:20:51;;;;;;;10.30;5.10;;;;;;;7.47;84.38;98258.27;81967;1297;3018153;-68
2023/11/15 00:23:20;;;;;;;8.90;5.30;;;;;;;7.38;84.26;98257.85;81421;1298;3011449;-68
2023/11/15 00:25:47;;;;;;;12.80;5.50;;;;;;;7.11;85.34;98258.79;81988;1296;3013512;-68
2023/11/15 00:28:15;;;;;;;11.80;5.30;;;;;;;6.73;86.85;98265.88;81933;1296;3011438;-68
2023/11/15 00:30:43;;;;;;;10.10;5.50;;;;;;;6.92;87.03;98261.88;80735;1297;3049148;-69
2023/11/15 00:33:11;;;;;;;10.50;5.30;;;;;;;7.35;85.83;98258.95;81941;1297;3012496;-69
2023/11/15 00:35:38;;;;;;;10.30;5.80;;;;;;;7.49;85.14;98266.69;81989;1295;3011417;-68
2023/11/15 00:38:07;;;;;;;11.40;5.50;;;;;;;7.07;85.95;98261.33;80688;1298;3050353;-68
2023/11/15 00:40:35;;;;;;;10.50;4.80;;;;;;;7.06;85.96;98271.08;81966;1295;3012582;-68
2023/11/15 00:43:04;;;;;;;11.50;5.70;;;;;;;6.90;86.07;98281.14;81372;1299;3011197;-68
2023/11/15 00:45:31;;;;;;;6.80;4.20;;;;;;;6.70;87.05;98296.55;81996;1296;3011183;-68
2023/11/15 00:47:58;;;;;;;11.80;5.50;;;;;;;6.72;87.90;98285.42;82006;1297;3011252;-69
2023/11/15 00:50:27;;;;;;;13.80;5.40;;;;;;;7.20;87.07;98286.23;80746;1296;3051254;-70
2023/11/15 00:52:54;;;;;;;11.90;5.30;;;;;;;7.13;86.33;98286.14;81992;1300;3011437;-69
2023/11/15 00:55:21;;;;;;;11.30;5.80;;;;;;;6.90;86.42;98279.95;81969;1296;3011506;-70
2023/11/15 00:57:50;;;;;;;11.70;5.90;;;;;;;6.77;87.54;98279.91;80700;1296;3049228;-68
2023/11/15 01:00:24;;;;;;;11.40;6.00;;;;;;;6.72;86.86;98281.95;82014;1296;3013280;-68
2023/11/15 01:02:55;;;;;;;;;;;;;;;6.40;88.57;98279.81;80710;1300;3050344;-68
2023/11/15 01:05:26;;;;;;;11.50;5.50;;;;;;;6.40;89.12;98274.89;82001;1300;3011660;-68
2023/11/15 01:07:54;;;;;;;7.60;4.30;;;;;;;7.18;86.88;98277.26;80733;1296;3069264;-68
2023/11/15 01:10:24;;;;;;;17.10;5.80;;;;;;;7.77;83.10;98273.17;82033;1296;3011352;-69
2023/11/15 01:12:54;;;;;;;9.80;4.70;;;;;;;7.32;84.14;98267.28;80675;1296;3049732;-67
2023/11/15 01:15:21;;;;;;;11.00;6.20;;;;;;;6.97;85.14;98265.92;81997;1296;3011455;-67
2023/11/15 01:17:51;;;;;;;11.00;6.00;;;;;;;6.74;86.32;98261.30;81482;1295;3011335;-68
2023/11/15 01:20:21;;;;;;;9.60;5.20;;;;;;;6.67;86.63;98268.57;81992;1296;3011427;-68
2023/11/15 01:22:49;;;;;;;11.20;5.90;;;;;;;6.50;87.51;98266.11;80757;1295;3025211;-68
2023/11/15 01:25:16;;;;;;;10.70;5.00;;;;;;;6.91;87.61;98271.03;82011;1299;3011438;-67
2023/11/15 01:27:43;;;;;;;10.40;5.90;;;;;;;6.85;87.46;98270.77;82000;1296;3011296;-68
2023/11/15 01:30:11;;;;;;;12.10;5.40;;;;;;;6.99;86.30;98269.30;80746;1295;3049369;-67
2023/11/15 01:32:39;;;;;;;12.10;6.40;;;;;;;6.86;86.17;98270.30;82001;1296;3011409;-68
2023/11/15 01:35:06;;;;;;;9.10;5.40;;;;;;;6.61;86.69;98267.88;81911;1297;3011431;-68
2023/11/15 01:37:34;;;;;;;12.90;6.50;;;;;;;6.32;87.95;98263.26;80738;1297;3051434;-68
2023/11/15 01:40:01;;;;;;;10.60;6.00;;;;;;;6.23;88.80;98262.63;82003;1296;3018169;-67
2023/11/15 01:42:28;;;;;;;9.60;5.00;;;;;;;6.56;88.75;98256.36;81991;1296;3011289;-68
2023/11/15 01:44:57;;;;;;;9.20;6.00;;;;;;;6.96;87.28;98266.66;80689;1296;3026448;-68
2023/11/15 01:47:24;;;;;;;14.20;6.10;;;;;;;7.06;85.86;98268.31;81967;1296;3018283;-68
2023/11/15 01:49:51;;;;;;;12.00;6.50;;;;;;;6.70;86.74;98280.52;81947;1296;3011392;-69
2023/11/15 01:52:20;;;;;;;14.20;6.30;;;;;;;6.63;86.49;98276.64;80752;1300;3051852;-69
2023/11/15 01:54:47;;;;;;;18.50;7.40;;;;;;;6.30;87.52;98273.13;81965;1297;3012080;-69
2023/11/15 01:57:14;;;;;;;12.00;6.20;;;;;;;6.01;89.22;98268.98;82018;1295;3011306;-70
2023/11/15 01:59:43;;;;;;;14.00;6.20;;;;;;;6.68;88.51;98266.93;80681;1297;3049034;-68
2023/11/15 02:02:10;;;;;;;13.20;6.20;;;;;;;7.08;85.74;98260.20;81954;1296;3013089;-68
2023/11/15 02:04:38;;;;;;;12.10;6.00;;;;;;;6.90;85.86;98261.48;81922;1296;3011317;-69
2023/11/15 02:07:07;;;;;;;13.30;6.40;;;;;;;6.60;86.65;98259.80;80742;1297;3054314;-69
2023/11/15 02:09:35;;;;;;;15.60;7.00;;;;;;;6.45;86.96;98250.31;81865;1298;3012574;-68
2023/11/15 02:12:05;;;;;;;12.30;6.80;;;;;;;6.38;87.12;98251.43;80666;1296;3026259;-68
2023/11/15 02:14:32;;;;;;;18.20;5.40;;;;;;;6.34;88.48;98250.94;81946;1297;3011371;-67
2023/11/15 02:16:59;;;;;;;15.70;6.70;;;;;;;7.01;85.89;98243.94;81961;1295;3011039;-68
2023/11/15 02:19:29;;;;;;;14.40;6.10;;;;;;;6.88;85.42;98242.45;80702;1297;3048594;-68
2023/11/15 02:21:55;;;;;;;13.60;6.30;;;;;;;6.60;86.50;98239.95;81982;1296;3011264;-68
2023/11/15 02:24:26;;;;;;;12.20;6.30;;;;;;;6.36;87.32;98236.41;81488;1295;3011220;-68
2023/11/15 02:26:53;;;;;;;15.80;6.90;;;;;;;6.09;88.62;98236.84;81967;1297;3013353;-68
2023/11/15 02:29:20;;;;;;;10.10;5.60;;;;;;;6.03;89.02;98235.78;82013;1297;3011397;-68
2023/11/15 02:31:49;;;;;;;13.50;5.30;;;;;;;6.28;88.65;98234.46;80724;1295;3048495;-69
2023/11/15 02:34:16;;;;;;;11.50;6.60;;;;;;;6.66;87.28;98223.51;81987;1296;3011470;-68
2023/11/15 02:36:43;;;;;;;10.20;6.40;;;;;;;6.34;87.97;98222.27;81991;1297;3011389;-68
2023/11/15 02:39:11;;;;;;;13.20;6.50;;;;;;;6.07;89.53;98217.16;80727;1300;3051616;-68
2023/11/15 02:41:38;;;;;;;11.80;6.50;;;;;;;6.04;89.45;98222.06;81941;1297;3018108;-68
2023/11/15 02:44:05;;;;;;;14.00;7.30;;;;;;;5.84;90.09;98220.98;81995;1295;3011204;-67
2023/11/15 02:46:33;;;;;;;12.70;6.00;;;;;;;5.66;91.46;98225.00;80715;1296;3048650;-68
2023/11/15 02:49:00;;;;;;;19.30;6.10;;;;;;;6.15;90.17;98230.20;81965;1300;3018989;-68
2023/11/15 02:51:27;;;;;;;12.10;6.30;;;;;;;6.32;88.68;98222.41;82010;1298;3011311;-68
2023/11/15 02:53:56;;;;;;;13.00;6.50;;;;;;;6.33;88.55;98233.33;80724;1297;3025865;-68
2023/11/15 02:56:23;;;;;;;13.80;5.50;;;;;;;5.86;89.70;98240.82;81997;1299;3012924;-69
2023/11/15 02:58:52;;;;;;;15.10;7.20;;;;;;;5.78;90.33;98245.80;81969;1295;3011619;-68
2023/11/15 03:01:21;;;;;;;18.20;7.10;;;;;;;5.64;90.77;98251.53;80727;1295;3049012;-68
2023/11/15 03:03:48;;;;;;;12.90;5.60;;;;;;;5.56;91.46;98257.38;81990;1296;3013315;-68
2023/11/15 03:06:15;;;;;;;14.60;7.00;;;;;;;6.01;90.67;98249.33;81940;1297;3011472;-68
2023/11/15 03:08:43;;;;;;;11.60;6.30;;;;;;;6.35;89.20;98246.00;80705;1295;3052871;-68
2023/11/15 03:11:11;;;;;;;16.60;7.50;;;;;;;6.28;88.01;98246.65;82004;1297;3012381;-68
2023/11/15 03:13:38;;;;;;;16.20;6.90;;;;;;;5.77;89.67;98252.12;81929;1296;3011128;-68
2023/11/15 03:16:07;;;;;;;14.70;7.00;;;;;;;5.55;91.25;98264.55;80751;1296;3047622;-68
2023/11/15 03:18:34;;;;;;;21.50;7.80;;;;;;;5.42;91.51;98267.23;81988;1297;3013387;-69
2023/11/15 03:21:02;;;;;;;14.90;5.90;;;;;;;5.41;92.01;98265.57;81951;1296;3011241;-68
2023/11/15 03:23:30;;;;;;;14.70;6.80;;;;;;;5.74;90.82;98261.02;80645;1297;3051663;-68
2023/11/15 03:25:57;;;;;;;12.10;6.90;;;;;;;5.95;90.78;98271.60;81985;1295;3012618;-69
2023/11/15 03:28:24;;;;;;;13.30;6.30;;;;;;;5.79;90.25;98276.50;81969;1296;3011609;-67
2023/11/15 03:30:52;;;;;;;14.60;7.00;;;;;;;5.89;89.96;98263.63;80765;1295;3026016;-69
2023/11/15 03:33:19;;;;;;;11.70;6.30;;;;;;;5.65;90.12;98249.71;81999;1296;3012410;-68
2023/11/15 03:35:46;;;;;;;11.70;6.30;;;;;;;5.40;91.47;98253.98;81927;1296;3011286;-68
2023/11/15 03:38:14;;;;;;;14.10;6.40;;;;;;;5.33;92.48;98260.67;80781;1295;3027513;-68
2023/11/15 03:40:41;;;;;;;13.20;6.10;;;;;;;6.03;91.23;98266.58;81954;1296;3013123;-68
2023/11/15 03:43:09;;;;;;;15.80;5.80;;;;;;;6.16;89.15;98279.87;81967;1296;3011314;-68
2023/11/15 03:45:37;;;;;;;14.00;7.40;;;;;;;6.43;87.68;98296.15;80679;1296;3049271;-68
2023/11/15 03:48:04;;;;;;;11.50;6.40;;;;;;;6.01;88.27;98285.84;82041;1295;3018141;-68
2023/11/15 03:50:31;;;;;;;13.80;6.80;;;;;;;5.69;89.33;98288.41;81983;1296;3011450;-68
2023/11/15 03:53:02;;;;;;;16.80;8.20;;;;;;;5.38;90.34;98294.59;80707;1300;3026221;-68
2023/11/15 03:55:30;;;;;;;10.80;5.60;;;;;;;5.34;91.43;98299.27;81966;1297;3011144;-68
2023/11/15 03:57:58;;;;;;;10.60;5.80;;;;;;;5.66;89.98;98292.91;80765;1297;3028097;-68
2023/11/15 04:00:25;;;;;;;12.60;6.50;;;;;;;6.01;89.10;98289.48;81981;1296;3013303;-68
2023/11/15 04:02:53;;;;;;;15.20;6.40;;;;;;;5.84;88.78;98291.88;81974;1297;3011463;-68
2023/11/15 04:05:22;;;;;;;13.30;7.00;;;;;;;5.92;89.11;98297.27;80706;1298;3049426;-68
2023/11/15 04:07:48;;;;;;;12.20;7.00;;;;;;;5.72;89.18;98293.77;82003;1297;3012641;-68
2023/11/15 04:10:15;;;;;;;13.80;6.90;;;;;;;5.47;90.07;98294.37;81898;1298;3011210;-68
2023/11/15 04:12:43;;;;;;;10.80;5.70;;;;;;;5.56;90.58;98290.40;80716;1296;3051498;-68
2023/11/15 04:15:10;;;;;;;14.60;7.10;;;;;;;6.12;88.80;98286.76;81973;1295;3012708;-68
2023/11/15 04:17:37;;;;;;;13.00;7.40;;;;;;;6.20;87.99;98292.37;81902;1296;3011293;-67
2023/11/15 04:20:06;;;;;;;16.10;7.40;;;;;;;6.26;87.19;98289.35;80730;1295;3026809;-67
2023/11/15 04:22:33;;;;;;;13.40;6.30;;;;;;;5.82;88.27;98286.59;81957;1296;3011426;-69
2023/11/15 04:25:00;;;;;;;12.70;6.90;;;;;;;5.78;88.64;98287.50;82001;1297;3011979;-68
2023/11/15 04:27:30;;;;;;;11.10;5.00;;;;;;;5.59;89.20;98279.11;80701;1296;3052045;-67
2023/11/15 04:29:57;;;;;;;10.10;5.70;;;;;;;5.82;89.18;98278.77;81973;1297;3011419;-68
2023/11/15 04:32:26;;;;;;;11.10;6.00;;;;;;;6.41;87.11;98282.54;81459;1296;3011147;-68
2023/11/15 04:34:53;;;;;;;12.50;5.60;;;;;;;6.63;85.59;98278.58;82025;1296;3012765;-69
2023/11/15 04:37:20;;;;;;;17.10;8.10;;;;;;;6.31;86.00;98272.70;82011;1296;3011357;-68
2023/11/15 04:39:49;;;;;;;15.00;6.80;;;;;;;5.97;87.03;98270.61;80754;1297;3050501;-68
2023/11/15 04:42:18;;;;;;;14.40;7.00;;;;;;;5.80;87.78;98267.23;82021;1297;3012556;-67
2023/11/15 04:44:48;;;;;;;13.80;6.70;;;;;;;5.83;87.93;98268.97;81456;1295;3011124;-67
2023/11/15 04:47:15;;;;;;;23.40;7.90;;;;;;;6.25;87.57;98274.79;82025;1296;3011481;-68
2023/11/15 04:49:42;;;;;;;29.20;10.90;;;;;;;6.53;85.64;98274.30;81969;1296;3011511;-70
2023/11/15 04:52:11;;;;;;;35.30;11.80;;;;;;;6.20;86.16;98275.96;80722;1298;3049408;-68
2023/11/15 04:54:38;;;;;;;23.20;9.40;;;;;;;6.06;87.10;98282.20;82007;1300;3012882;-68
2023/11/15 04:57:05;;;;;;;24.80;10.30;;;;;;;5.67;88.81;98279.83;81981;1299;3011259;-69
2023/11/15 04:59:34;;;;;;;18.30;7.90;;;;;;;5.71;88.52;98284.14;80752;1295;3053336;-68
2023/11/15 05:02:00;;;;;;;12.30;6.30;;;;;;;5.66;89.64;98284.23;81999;1297;3012744;-68
2023/11/15 05:04:28;;;;;;;12.70;6.00;;;;;;;6.50;87.04;98284.39;81968;1300;3011369;-68
2023/11/15 05:06:56;;;;;;;14.90;7.30;;;;;;;6.42;85.80;98282.30;80734;1298;3049317;-69
2023/11/15 05:09:24;;;;;;;15.70;6.90;;;;;;;6.12;86.57;98288.50;82021;1297;3011285;-68
2023/11/15 05:11:51;;;;;;;16.10;7.20;;;;;;;6.04;87.75;98294.36;82008;1300;3011236;-68
2023/11/15 05:14:19;;;;;;;15.70;7.60;;;;;;;5.72;88.03;98296.93;80742;1295;3049993;-69
2023/11/15 05:16:46;;;;;;;12.20;7.00;;;;;;;5.30;89.73;98303.02;82024;1296;3019013;-67
2023/11/15 05:19:13;;;;;;;16.40;7.60;;;;;;;5.27;90.44;98299.89;81975;1297;3011128;-67
2023/11/15 05:21:41;;;;;;;12.60;6.70;;;;;;;5.41;91.09;98297.66;80708;1297;3026076;-68
2023/11/15 05:24:09;;;;;;;16.50;7.10;;;;;;;5.96;87.92;98293.60;82003;1299;3018548;-67
2023/11/15 05:26:35;;;;;;;15.70;6.60;;;;;;;5.72;88.96;98305.43;81963;1297;3011248;-67
2023/11/15 05:29:03;;;;;;;14.10;6.60;;;;;;;5.63;88.76;98307.88;80687;1296;3051487;-67
2023/11/15 05:31:30;;;;;;;17.20;7.00;;;;;;;5.56;89.39;98308.14;81965;1296;3012376;-68
2023/11/15 05:33:57;;;;;;;11.80;6.80;;;;;;;5.44;89.70;98301.33;81946;1296;3011244;-68
2023/11/15 05:36:25;;;;;;;12.20;7.00;;;;;;;5.38;89.52;98297.54;80697;1296;3026028;-67
2023/11/15 05:38:52;;;;;;;15.40;6.90;;;;;;;5.23;90.99;98287.10;82010;1296;3012606;-67
2023/11/15 05:41:19;;;;;;;11.80;5.80;;;;;;;5.73;90.11;98284.71;81960;1299;3011358;-67
2023/11/15 05:43:47;;;;;;;14.10;6.70;;;;;;;6.39;87.32;98284.05;80717;1299;3026257;-67
2023/11/15 05:46:15;;;;;;;16.30;7.40;;;;;;;6.16;87.14;98291.50;81984;1296;3012686;-68
2023/11/15 05:48:42;;;;;;;14.10;7.80;;;;;;;6.33;86.75;98296.61;81998;1296;3011330;-68
2023/11/15 05:51:10;;;;;;;14.20;6.90;;;;;;;6.08;86.78;98303.83;80653;1297;3050195;-69
2023/11/15 05:53:38;;;;;;;14.90;7.40;;;;;;;5.81;87.62;98306.64;81991;1296;3017906;-69
2023/11/15 05:56:05;;;;;;;12.50;6.40;;;;;;;5.62;88.89;98307.08;81959;1296;3011759;-67
2023/11/15 05:58:34;;;;;;;11.00;6.00;;;;;;;6.28;88.79;98306.91;80716;1296;3050881;-69
2023/11/15 06:01:00;;;;;;;12.60;6.30;;;;;;;7.06;84.69;98307.34;81982;1295;3012479;-67
2023/11/15 06:03:30;;;;;;;13.40;6.10;;;;;;;6.54;85.10;98309.70;81984;1296;3011445;-68
2023/11/15 06:05:59;;;;;;;15.10;7.40;;;;;;;6.33;86.27;98305.29;80723;1296;3050325;-68
2023/11/15 06:08:26;;;;;;;17.30;7.80;;;;;;;6.05;86.95;98312.22;82015;1299;3012589;-68
2023/11/15 06:10:53;;;;;;;14.20;7.60;;;;;;;5.76;88.14;98309.02;81953;1297;3011201;-68
2023/11/15 06:13:21;;;;;;;15.40;7.70;;;;;;;5.71;89.07;98310.55;80721;1296;3049554;-68
2023/11/15 06:15:48;;;;;;;14.70;6.40;;;;;;;5.71;89.08;98306.86;81985;1296;3018140;-67
2023/11/15 06:18:15;;;;;;;13.50;6.90;;;;;;;6.16;88.72;98309.98;81955;1296;3011393;-68
2023/11/15 06:20:43;;;;;;;12.40;6.60;;;;;;;6.64;86.75;98314.49;80698;1297;3026376;-70
2023/11/15 06:23:10;;;;;;;11.70;6.90;;;;;;;6.82;85.31;98309.86;81987;1300;3012627;-70
2023/11/15 06:25:37;;;;;;;13.30;7.60;;;;;;;6.56;84.90;98320.58;81975;1297;3011169;-69
2023/11/15 06:28:05;;;;;;;13.50;6.50;;;;;;;6.48;85.58;98329.58;80740;1299;3025387;-68
2023/11/15 06:30:32;;;;;;;12.60;7.80;;;;;;;6.25;85.76;98330.61;81986;1296;3012920;-68
2023/11/15 06:32:59;;;;;;;20.40;8.00;;;;;;;5.77;87.99;98329.16;81961;1296;3011129;-67
2023/11/15 06:35:27;;;;;;;10.80;5.50;;;;;;;5.72;89.12;98326.29;80712;1296;3026673;-71
2023/11/15 06:37:54;;;;;;;10.50;6.60;;;;;;;5.95;89.27;98330.86;82020;1295;3012772;-68
2023/11/15 06:40:21;;;;;;;13.70;6.50;;;;;;;6.61;87.25;98328.23;82022;1296;3011359;-68
2023/11/15 06:42:49;;;;;;;12.20;6.30;;;;;;;6.73;85.27;98324.39;80738;1297;3050607;-68
2023/11/15 06:45:16;;;;;;;11.20;6.80;;;;;;;6.70;85.13;98324.37;81979;1296;3013182;-68
2023/11/15 06:47:43;;;;;;;14.90;6.90;;;;;;;6.37;85.75;98321.38;81969;1295;3011562;-68
2023/11/15 06:50:12;;;;;;;14.50;7.40;;;;;;;6.38;85.75;98325.00;80745;1296;3026465;-67
2023/11/15 06:52:39;;;;;;;14.50;7.90;;;;;;;6.23;86.60;98336.34;82005;1297;3012578;-68
2023/11/15 06:55:09;;;;;;;14.10;6.60;;;;;;;6.03;88.21;98324.15;81970;1295;3011135;-68
2023/11/15 06:57:38;;;;;;;14.40;7.40;;;;;;;6.66;86.91;98325.16;80708;1300;3050844;-68
2023/11/15 07:00:08;;;;;;;16.00;6.50;;;;;;;7.12;84.91;98330.62;81985;1297;3013752;-73
2023/11/15 07:02:37;;;;;;;11.80;7.00;;;;;;;7.11;83.69;98325.61;80708;1295;3053168;-69
2023/11/15 07:05:10;;;;;;;19.00;7.50;;;;;;;7.20;82.96;98326.58;81951;1295;3011382;-68
2023/11/15 07:07:39;;;;;;;11.20;7.50;;;;;;;6.93;83.59;98329.37;80621;1299;3051520;-70
2023/11/15 07:10:07;;;;;;;13.80;7.80;;;;;;;6.80;84.03;98336.84;81969;1297;3012751;-69
2023/11/15 07:12:36;;;;;;;15.30;7.60;;;;;;;6.60;84.95;98345.35;81995;1295;3011235;-69
2023/11/15 07:15:11;;;;;;;10.80;5.50;;;;;;;6.29;86.58;98347.58;80732;1295;3050894;-69
2023/11/15 07:17:37;;;;;;;16.60;7.90;;;;;;;6.65;86.74;98354.24;82028;1295;3011274;-68
2023/11/15 07:20:09;;;;;;;14.30;7.20;;;;;;;7.17;85.00;98359.19;80735;1295;3048946;-68
2023/11/15 07:22:37;;;;;;;13.70;6.30;;;;;;;7.41;82.96;98359.42;81981;1296;3011442;-70
2023/11/15 07:25:06;;;;;;;11.80;6.30;;;;;;;7.29;82.87;98356.66;80713;1297;3025485;-69
2023/11/15 07:27:34;;;;;;;12.40;7.20;;;;;;;7.24;82.91;98361.34;81992;1296;3011448;-70
2023/11/15 07:30:08;;;;;;;16.60;7.60;;;;;;;7.03;83.42;98362.16;81472;1296;3011384;-72
2023/11/15 07:32:35;;;;;;;18.20;9.70;;;;;;;6.70;85.20;98353.09;82001;1296;3011275;-72
2023/11/15 07:35:08;;;;;;;17.60;7.90;;;;;;;6.54;86.76;98339.66;80723;1297;3049307;-71
2023/11/15 07:37:35;;;;;;;16.90;7.90;;;;;;;7.11;86.54;98339.37;81994;1295;3011111;-69
2023/11/15 07:40:04;;;;;;;13.10;6.90;;;;;;;7.73;83.35;98341.23;80693;1297;3048374;-70
2023/11/15 07:42:34;;;;;;;15.90;7.40;;;;;;;7.79;81.95;98335.98;82004;1296;3012544;-70
2023/11/15 07:45:03;;;;;;;20.50;8.30;;;;;;;7.72;82.14;98333.15;81464;1295;3011339;-70
2023/11/15 07:47:33;;;;;;;15.80;8.10;;;;;;;7.49;83.32;98341.43;82000;1297;3012922;-70
2023/11/15 07:50:05;;;;;;;14.60;7.90;;;;;;;7.37;83.58;98338.58;80732;1295;3055945;-71
2023/11/15 07:52:32;;;;;;;15.60;8.10;;;;;;;7.22;84.39;98347.73;81947;1296;3011534;-70
2023/11/15 07:55:02;;;;;;;11.90;7.30;;;;;;;7.18;84.57;98350.94;80687;1297;3027717;-71
2023/11/15 07:57:37;;;;;;;11.50;6.30;;;;;;;7.18;84.70;98347.79;80701;1297;3052282;-70
2023/11/15 08:00:08;;;;;;;11.40;6.30;;;;;;;7.88;83.45;98346.39;81978;1296;3018286;-69
2023/11/15 08:02:42;;;;;;;14.30;7.00;;;;;;;8.52;81.25;98351.26;80731;1296;3068826;-72
2023/11/15 08:05:09;;;;;;;11.40;6.30;;;;;;;8.31;80.40;98349.36;81942;1296;3012554;-72
2023/11/15 08:07:39;;;;;;;16.00;6.50;;;;;;;8.12;80.90;98344.25;81474;1296;3011176;-70
2023/11/15 08:10:07;;;;;;;11.30;7.00;;;;;;;7.94;81.70;98337.77;81985;1297;3012621;-70
2023/11/15 08:12:35;;;;;;;15.30;7.30;;;;;;;7.89;81.93;98333.52;81978;1297;3011174;-70
2023/11/15 08:15:05;;;;;;;14.20;6.10;;;;;;;7.73;82.86;98337.09;80729;1296;3054771;-72
2023/11/15 08:17:35;;;;;;;15.70;6.40;;;;;;;7.68;82.80;98337.25;81975;1296;3011379;-71
2023/11/15 08:20:11;;;;;;;14.60;7.40;;;;;;;7.77;82.87;98334.41;80667;1296;3068661;-71
2023/11/15 08:22:39;;;;;;;15.10;7.10;;;;;;;8.24;82.60;98337.14;80736;1296;3052228;-72
2023/11/15 08:25:09;;;;;;;15.80;7.00;;;;;;;8.39;81.66;98327.06;81986;1297;3018441;-71
2023/11/15 08:27:40;;;;;;;19.90;7.10;;;;;;;8.58;81.25;98317.52;81454;1296;3011077;-69
2023/11/15 08:30:17;;;;;;;17.50;9.00;;;;;;;8.65;80.80;98320.52;81964;1298;3011414;-69
2023/11/15 08:32:47;;;;;;;15.70;7.10;;;;;;;8.27;81.84;98331.33;80739;1296;3051284;-72
2023/11/15 08:35:17;;;;;;;11.90;6.00;;;;;;;8.33;81.95;98325.52;81972;1297;3011278;-75
2023/11/15 08:37:46;;;;;;;18.60;8.20;;;;;;;8.11;82.27;98329.13;80761;1295;3051265;-73
2023/11/15 08:40:13;;;;;;;14.80;7.00;;;;;;;8.06;82.66;98332.24;81999;1295;3011361;-74
2023/11/15 08:42:40;;;;;;;9.90;5.40;;;;;;;8.23;81.94;98326.88;81999;1296;3011358;-73
2023/11/15 08:45:09;;;;;;;11.30;5.40;;;;;;;8.67;81.66;98327.48;80733;1296;3048451;-74
2023/11/15 08:47:36;;;;;;;11.70;5.10;;;;;;;9.38;78.82;98321.71;81978;1295;3012716;-73
2023/11/15 08:50:08;;;;;;;11.20;6.50;;;;;;;9.17;78.32;98318.70;81980;1297;3011400;-74
2023/11/15 08:52:39;;;;;;;14.30;6.70;;;;;;;9.02;78.74;98311.27;80786;1297;3052455;-73
2023/11/15 08:55:08;;;;;;;17.70;7.90;;;;;;;8.89;79.36;98313.05;81995;1297;3011209;-74
2023/11/15 08:57:36;;;;;;;21.60;8.00;;;;;;;8.52;80.83;98311.29;80710;1296;3051525;-74
2023/11/15 09:00:07;;;;;;;16.40;8.10;;;;;;;8.54;80.91;98311.73;82003;1296;3012959;-74
2023/11/15 09:02:36;;;;;;;24.10;10.90;;;;;;;8.31;82.89;98306.46;80742;1295;3053265;-73
2023/11/15 09:05:10;;;;;;;22.00;8.60;;;;;;;8.24;83.36;98301.38;79332;1296;3602715;-74
2023/11/15 09:07:39;;;;;;;12.20;5.50;;;;;;;8.32;83.88;98299.77;80725;1297;3052555;-74
2023/11/15 09:10:11;;;;;;;17.50;8.20;;;;;;;9.19;81.94;98294.95;82022;1296;3012669;-74
2023/11/15 09:12:41;;;;;;;16.70;7.90;;;;;;;9.36;79.84;98289.91;80731;1295;3052476;-75
2023/11/15 09:15:11;;;;;;;16.20;8.00;;;;;;;9.63;79.00;98291.37;81967;1296;3012719;-73
2023/11/15 09:17:46;;;;;;;16.50;6.70;;;;;;;9.54;78.54;98295.56;80720;1295;3048808;-75
2023/11/15 09:20:21;;;;;;;16.80;6.50;;;;;;;9.35;79.10;98297.63;81475;1295;3011354;-74
2023/11/15 09:22:53;;;;;;;15.40;6.50;;;;;;;8.95;80.85;98303.54;82017;1296;3011604;-74
2023/11/15 09:25:23;;;;;;;15.20;7.00;;;;;;;8.81;81.60;98312.92;80741;1297;3048935;-74
2023/11/15 09:27:52;;;;;;;14.00;6.60;;;;;;;8.56;82.63;98330.25;81978;1296;3011451;-74
2023/11/15 09:30:21;;;;;;;16.30;6.90;;;;;;;8.62;82.58;98324.56;80699;1300;3052859;-74
2023/11/15 09:32:50;;;;;;;19.90;5.90;;;;;;;8.53;83.25;98317.36;81995;1297;3013049;-74
2023/11/15 09:35:21;;;;;;;17.50;5.60;;;;;;;8.82;82.69;98312.01;81457;1296;3011359;-74
2023/11/15 09:37:50;;;;;;;11.70;5.20;;;;;;;9.51;80.70;98310.98;81987;1296;3012763;-73
2023/11/15 09:40:18;;;;;;;14.50;5.20;;;;;;;9.38;79.69;98303.70;80716;1295;3026680;-73
2023/11/15 09:42:49;;;;;;;12.10;5.30;;;;;;;9.30;80.35;98305.21;81996;1296;3011423;-75
2023/11/15 09:45:18;;;;;;;12.50;5.50;;;;;;;9.50;79.43;98299.73;80706;1300;3051817;-74
2023/11/15 09:47:47;;;;;;;11.40;5.40;;;;;;;9.31;79.84;98297.41;82028;1296;3011517;-74
2023/11/15 09:50:21;;;;;;;18.50;7.00;;;;;;;8.91;80.87;98298.61;80717;1296;3051099;-75
2023/11/15 09:52:53;;;;;;;26.20;9.50;;;;;;;8.75;82.40;98294.64;81983;1298;3011202;-74
2023/11/15 09:55:25;;;;;;;35.20;11.40;;;;;;;8.88;82.00;98279.60;80697;1296;3048725;-68
2023/11/15 09:57:53;;;;;;;27.50;9.60;;;;;;;8.96;82.18;98278.69;81966;1296;3011120;-71
2023/11/15 10:00:22;;;;;;;29.30;9.70;;;;;;;9.70;80.82;98274.75;80732;1297;3050000;-70
2023/11/15 10:02:51;;;;;;;27.70;8.30;;;;;;;10.13;78.05;98268.84;82006;1296;3012620;-70
2023/11/15 10:05:26;;;;;;;15.30;7.00;;;;;;;10.37;76.86;98265.42;81416;1295;3011286;-70
2023/11/15 10:08:13;;;;;;;17.30;6.70;;;;;;;10.11;77.05;98251.71;81433;1296;3011445;-71
2023/11/15 10:10:43;;;;;;;19.30;6.00;;;;;;;9.87;77.98;98248.33;80737;1296;3069515;-69
2023/11/15 10:13:14;;;;;;;24.00;8.10;;;;;;;9.88;77.52;98261.17;81938;1297;3013141;-70
2023/11/15 10:15:46;;;;;;;38.50;11.60;;;;;;;9.66;78.08;98254.31;80728;1296;3056219;-72
2023/11/15 10:18:14;;;;;;;28.50;8.30;;;;;;;9.46;78.90;98257.89;81928;1296;3011379;-70
2023/11/15 10:20:43;;;;;;;33.00;12.00;;;;;;;9.23;80.15;98261.85;80709;1296;3052512;-68
2023/11/15 10:23:13;;;;;;;14.00;5.90;;;;;;;9.16;81.02;98265.16;81986;1297;3011214;-70
2023/11/15 10:26:00;;;;;;;14.50;6.00;;;;;;;9.13;80.17;98264.35;80730;1296;3052505;-70
2023/11/15 10:28:32;;;;;;;16.00;6.40;;;;;;;9.00;81.17;98260.42;80731;1296;3068748;-68
2023/11/15 10:31:07;;;;;;;10.10;5.30;;;;;;;9.56;80.16;98264.61;81931;1295;3011352;-69
2023/11/15 10:33:37;;;;;;;13.60;5.60;;;;;;;10.23;78.34;98263.06;80656;1296;3057173;-70
2023/11/15 10:36:17;;;;;;;14.30;5.80;;;;;;;10.11;77.44;98262.39;81977;1295;3011230;-69
2023/11/15 10:38:47;;;;;;;12.20;6.50;;;;;;;9.91;78.46;98259.71;80673;1296;3053645;-67
2023/11/15 10:41:17;;;;;;;16.50;7.30;;;;;;;9.87;78.89;98252.35;81944;1297;3011271;-69
2023/11/15 10:43:49;;;;;;;16.10;6.10;;;;;;;9.80;78.74;98253.37;80702;1300;3026219;-69
2023/11/15 10:46:18;;;;;;;13.10;5.70;;;;;;;9.61;78.90;98257.96;81967;1297;3011263;-70
2023/11/15 10:48:49;;;;;;;12.20;5.30;;;;;;;9.42;79.21;98260.95;80690;1297;3069742;-69
2023/11/15 10:51:20;;;;;;;12.50;5.70;;;;;;;9.38;79.41;98257.27;81946;1296;3011394;-68
2023/11/15 10:53:48;;;;;;;12.50;6.10;;;;;;;9.07;80.98;98250.41;80695;1296;3057102;-69
2023/11/15 10:56:16;;;;;;;10.60;5.20;;;;;;;9.33;80.13;98245.40;81892;1297;3012522;-69
2023/11/15 10:58:47;;;;;;;16.60;5.90;;;;;;;9.96;78.95;98244.81;81887;1296;3011526;-69
2023/11/15 11:01:17;;;;;;;11.80;5.50;;;;;;;10.14;77.48;98253.27;80536;1299;3051974;-68
2023/11/15 11:03:46;;;;;;;20.10;6.90;;;;;;;10.27;77.08;98256.91;82001;1296;3011057;-67
2023/11/15 11:06:23;;;;;;;14.40;5.60;;;;;;;9.97;77.22;98263.05;80676;1297;3068358;-68
2023/11/15 11:09:03;;;;;;;13.70;6.60;;;;;;;9.61;78.10;98271.60;80637;1296;3052035;-68
2023/11/15 11:12:10;;;;;;;12.40;6.70;;;;;;;9.44;79.42;98250.71;80633;1296;3055558;-67
2023/11/15 11:14:39;;;;;;;13.40;5.60;;;;;;;9.30;79.54;98251.37;80596;1296;3049258;-69
2023/11/15 11:17:33;;;;;;;14.20;6.80;;;;;;;9.25;80.29;98243.70;81988;1296;3012343;-69
2023/11/15 11:20:04;;;;;;;17.70;6.80;;;;;;;9.25;80.12;98238.61;80734;1297;3052946;-69
2023/11/15 11:22:32;;;;;;;16.40;6.20;;;;;;;9.18;80.28;98234.61;82001;1297;3011209;-70
2023/11/15 11:25:07;;;;;;;14.50;4.70;;;;;;;9.13;81.14;98231.11;80761;1296;3067514;-68